sensor_id;sensor_type;location;lat;lon;timestamp;temperature;humidity
53904;DHT22;39812;52.430;16.936;2023-05-07T00:00:21;7.70;99.90
53904;DHT22;39812;52.430;16.936;2023-05-07T00:02:47;7.70;99.90
53904;DHT22;39812;52.430;16.936;2023-05-07T00:05:13;7.70;99.90
53904;DHT22;39812;52.430;16.936;2023-05-07T00:07:39;7.70;99.90
53904;DHT22;39812;52.430;16.936;2023-05-07T00:10:06;7.70;99.90
53904;DHT22;39812;52.430;16.936;2023-05-07T00:12:32;7.60;99.90
53904;DHT22;39812;52.430;16.936;2023-05-07T00:15:04;7.60;99.90
53904;DHT22;39812;52.430;16.936;2023-05-07T00:17:30;7.60;99.90
53904;DHT22;39812;52.430;16.936;2023-05-07T00:19:56;7.60;99.90
53904;DHT22;39812;52.430;16.936;2023-05-07T00:22:22;7.60;99.90
53904;DHT22;39812;52.430;16.936;2023-05-07T00:24:47;7.60;99.90
53904;DHT22;39812;52.430;16.936;2023-05-07T00:27:13;7.60;99.90
53904;DHT22;39812;52.430;16.936;2023-05-07T00:29:39;7.60;99.90
53904;DHT22;39812;52.430;16.936;2023-05-07T00:32:05;7.60;99.90
53904;DHT22;39812;52.430;16.936;2023-05-07T00:34:30;7.60;99.90
53904;DHT22;39812;52.430;16.936;2023-05-07T00:36:56;7.60;99.90
53904;DHT22;39812;52.430;16.936;2023-05-07T00:39:21;7.60;99.90
53904;DHT22;39812;52.430;16.936;2023-05-07T00:41:47;7.70;99.90
53904;DHT22;39812;52.430;16.936;2023-05-07T00:44:13;7.60;99.90
53904;DHT22;39812;52.430;16.936;2023-05-07T00:46:40;7.70;99.90
53904;DHT22;39812;52.430;16.936;2023-05-07T00:49:06;7.70;99.90
53904;DHT22;39812;52.430;16.936;2023-05-07T00:51:32;7.70;99.90
53904;DHT22;39812;52.430;16.936;2023-05-07T00:53:59;7.70;99.90
53904;DHT22;39812;52.430;16.936;2023-05-07T00:56:26;7.70;99.90
53904;DHT22;39812;52.430;16.936;2023-05-07T00:58:52;7.70;99.90
53904;DHT22;39812;52.430;16.936;2023-05-07T01:01:17;7.60;99.90
53904;DHT22;39812;52.430;16.936;2023-05-07T01:03:43;7.60;99.90
53904;DHT22;39812;52.430;16.936;2023-05-07T01:06:10;7.50;99.90
53904;DHT22;39812;52.430;16.936;2023-05-07T01:08:39;7.40;99.90
53904;DHT22;39812;52.430;16.936;2023-05-07T01:11:06;7.30;99.90
53904;DHT22;39812;52.430;16.936;2023-05-07T01:13:32;7.30;99.90
53904;DHT22;39812;52.430;16.936;2023-05-07T01:15:58;7.20;99.90
53904;DHT22;39812;52.430;16.936;2023-05-07T01:18:24;7.20;99.90
53904;DHT22;39812;52.430;16.936;2023-05-07T01:20:51;7.20;99.90
53904;DHT22;39812;52.430;16.936;2023-05-07T01:23:18;7.20;99.90
53904;DHT22;39812;52.430;16.936;2023-05-07T01:25:50;7.10;99.90
53904;DHT22;39812;52.430;16.936;2023-05-07T01:28:16;7.00;99.90
53904;DHT22;39812;52.430;16.936;2023-05-07T01:30:42;7.10;99.90
53904;DHT22;39812;52.430;16.936;2023-05-07T01:33:11;7.20;99.90
53904;DHT22;39812;52.430;16.936;2023-05-07T01:35:41;7.20;99.90
53904;DHT22;39812;52.430;16.936;2023-05-07T01:38:08;7.20;99.90
53904;DHT22;39812;52.430;16.936;2023-05-07T01:40:34;7.10;99.90
53904;DHT22;39812;52.430;16.936;2023-05-07T01:43:01;7.00;99.90
53904;DHT22;39812;52.430;16.936;2023-05-07T01:45:27;6.90;99.90
53904;DHT22;39812;52.430;16.936;2023-05-07T01:47:53;6.80;99.90
53904;DHT22;39812;52.430;16.936;2023-05-07T01:50:19;6.60;99.90
53904;DHT22;39812;52.430;16.936;2023-05-07T01:52:46;6.50;99.90
53904;DHT22;39812;52.430;16.936;2023-05-07T01:55:12;6.50;99.90
53904;DHT22;39812;52.430;16.936;2023-05-07T01:57:38;6.50;99.90
53904;DHT22;39812;52.430;16.936;2023-05-07T02:00:04;6.50;99.90
53904;DHT22;39812;52.430;16.936;2023-05-07T02:02:30;6.60;99.90
53904;DHT22;39812;52.430;16.936;2023-05-07T02:04:56;6.70;99.90
53904;DHT22;39812;52.430;16.936;2023-05-07T02:07:22;6.70;99.90
53904;DHT22;39812;52.430;16.936;2023-05-07T02:09:48;6.70;99.90
53904;DHT22;39812;52.430;16.936;2023-05-07T02:12:13;6.80;99.90
53904;DHT22;39812;52.430;16.936;2023-05-07T02:14:39;6.80;99.90
53904;DHT22;39812;52.430;16.936;2023-05-07T02:17:04;6.90;99.90
53904;DHT22;39812;52.430;16.936;2023-05-07T02:19:30;6.90;99.90
53904;DHT22;39812;52.430;16.936;2023-05-07T02:21:55;7.00;99.90
53904;DHT22;39812;52.430;16.936;2023-05-07T02:24:21;7.00;99.90
53904;DHT22;39812;52.430;16.936;2023-05-07T02:26:47;7.00;99.90
53904;DHT22;39812;52.430;16.936;2023-05-07T02:29:12;7.00;99.90
53904;DHT22;39812;52.430;16.936;2023-05-07T02:31:38;7.00;99.90
53904;DHT22;39812;52.430;16.936;2023-05-07T02:34:03;7.00;99.90
53904;DHT22;39812;52.430;16.936;2023-05-07T02:36:29;6.80;99.90
53904;DHT22;39812;52.430;16.936;2023-05-07T02:38:55;6.60;99.90
53904;DHT22;39812;52.430;16.936;2023-05-07T02:41:20;6.50;99.90
53904;DHT22;39812;52.430;16.936;2023-05-07T02:43:46;6.50;99.90
53904;DHT22;39812;52.430;16.936;2023-05-07T02:46:12;6.40;99.90
53904;DHT22;39812;52.430;16.936;2023-05-07T02:48:37;6.40;99.90
53904;DHT22;39812;52.430;16.936;2023-05-07T02:51:03;6.50;99.90
53904;DHT22;39812;52.430;16.936;2023-05-07T02:53:29;6.60;99.90
53904;DHT22;39812;52.430;16.936;2023-05-07T02:55:56;6.60;99.90
53904;DHT22;39812;52.430;16.936;2023-05-07T02:58:23;6.70;99.90
53904;DHT22;39812;52.430;16.936;2023-05-07T03:00:49;6.70;99.90
53904;DHT22;39812;52.430;16.936;2023-05-07T03:03:14;6.70;99.90
53904;DHT22;39812;52.430;16.936;2023-05-07T03:05:40;6.80;99.90
53904;DHT22;39812;52.430;16.936;2023-05-07T03:08:07;6.80;99.90
53904;DHT22;39812;52.430;16.936;2023-05-07T03:10:33;6.80;99.90
53904;DHT22;39812;52.430;16.936;2023-05-07T03:12:59;6.90;99.90
53904;DHT22;39812;52.430;16.936;2023-05-07T03:15:25;7.00;99.90
53904;DHT22;39812;52.430;16.936;2023-05-07T03:17:50;7.10;99.90
53904;DHT22;39812;52.430;16.936;2023-05-07T03:20:16;7.10;99.90
53904;DHT22;39812;52.430;16.936;2023-05-07T03:22:42;7.10;99.90
53904;DHT22;39812;52.430;16.936;2023-05-07T03:25:09;7.20;99.90
53904;DHT22;39812;52.430;16.936;2023-05-07T03:27:35;7.30;99.90
53904;DHT22;39812;52.430;16.936;2023-05-07T03:30:01;7.30;99.90
53904;DHT22;39812;52.430;16.936;2023-05-07T03:32:26;7.30;99.90
53904;DHT22;39812;52.430;16.936;2023-05-07T03:34:52;7.30;99.90
53904;DHT22;39812;52.430;16.936;2023-05-07T03:37:18;7.30;99.90
53904;DHT22;39812;52.430;16.936;2023-05-07T03:39:44;7.30;99.90
53904;DHT22;39812;52.430;16.936;2023-05-07T03:42:09;7.20;99.90
53904;DHT22;39812;52.430;16.936;2023-05-07T03:44:35;7.20;99.90
53904;DHT22;39812;52.430;16.936;2023-05-07T03:47:02;7.20;99.90
53904;DHT22;39812;52.430;16.936;2023-05-07T03:49:27;7.20;99.90
53904;DHT22;39812;52.430;16.936;2023-05-07T03:51:53;7.30;99.90
53904;DHT22;39812;52.430;16.936;2023-05-07T03:54:19;7.30;99.90
53904;DHT22;39812;52.430;16.936;2023-05-07T03:56:45;7.40;99.90
53904;DHT22;39812;52.430;16.936;2023-05-07T03:59:10;7.50;99.90
53904;DHT22;39812;52.430;16.936;2023-05-07T04:01:36;7.60;99.90
53904;DHT22;39812;52.430;16.936;2023-05-07T04:04:01;7.70;99.90
53904;DHT22;39812;52.430;16.936;2023-05-07T04:06:28;7.80;99.90
53904;DHT22;39812;52.430;16.936;2023-05-07T04:08:54;7.90;99.90
53904;DHT22;39812;52.430;16.936;2023-05-07T04:11:19;7.90;99.90
53904;DHT22;39812;52.430;16.936;2023-05-07T04:13:46;7.90;99.90
53904;DHT22;39812;52.430;16.936;2023-05-07T04:16:11;8.00;99.90
53904;DHT22;39812;52.430;16.936;2023-05-07T04:18:37;8.00;99.90
53904;DHT22;39812;52.430;16.936;2023-05-07T04:21:03;8.00;99.90
53904;DHT22;39812;52.430;16.936;2023-05-07T04:23:28;8.00;99.90
53904;DHT22;39812;52.430;16.936;2023-05-07T04:25:54;8.00;99.90
53904;DHT22;39812;52.430;16.936;2023-05-07T04:28:20;7.90;99.90
53904;DHT22;39812;52.430;16.936;2023-05-07T04:30:46;7.80;99.90
53904;DHT22;39812;52.430;16.936;2023-05-07T04:33:11;7.60;99.90
53904;DHT22;39812;52.430;16.936;2023-05-07T04:35:39;7.50;99.90
53904;DHT22;39812;52.430;16.936;2023-05-07T04:38:04;7.40;99.90
53904;DHT22;39812;52.430;16.936;2023-05-07T04:40:30;7.30;99.90
53904;DHT22;39812;52.430;16.936;2023-05-07T04:42:56;7.20;99.90
53904;DHT22;39812;52.430;16.936;2023-05-07T04:45:21;7.20;99.90
53904;DHT22;39812;52.430;16.936;2023-05-07T04:47:47;7.20;99.90
53904;DHT22;39812;52.430;16.936;2023-05-07T04:50:12;7.30;99.90
53904;DHT22;39812;52.430;16.936;2023-05-07T04:52:38;7.40;99.90
53904;DHT22;39812;52.430;16.936;2023-05-07T04:55:04;7.70;99.90
53904;DHT22;39812;52.430;16.936;2023-05-07T04:57:30;8.10;99.90
53904;DHT22;39812;52.430;16.936;2023-05-07T04:59:55;8.40;99.90
53904;DHT22;39812;52.430;16.936;2023-05-07T05:02:21;8.80;99.90
53904;DHT22;39812;52.430;16.936;2023-05-07T05:04:46;8.80;99.90
53904;DHT22;39812;52.430;16.936;2023-05-07T05:07:12;8.70;99.90
53904;DHT22;39812;52.430;16.936;2023-05-07T05:09:38;8.70;99.90
53904;DHT22;39812;52.430;16.936;2023-05-07T05:12:04;8.50;99.90
53904;DHT22;39812;52.430;16.936;2023-05-07T05:14:32;8.50;99.90
53904;DHT22;39812;52.430;16.936;2023-05-07T05:16:58;8.50;99.90
53904;DHT22;39812;52.430;16.936;2023-05-07T05:19:23;8.60;99.90
53904;DHT22;39812;52.430;16.936;2023-05-07T05:21:49;8.70;99.90
53904;DHT22;39812;52.430;16.936;2023-05-07T05:24:14;8.90;99.90
53904;DHT22;39812;52.430;16.936;2023-05-07T05:26:42;9.20;99.90
53904;DHT22;39812;52.430;16.936;2023-05-07T05:29:07;9.40;99.90
53904;DHT22;39812;52.430;16.936;2023-05-07T05:31:33;9.20;99.90
53904;DHT22;39812;52.430;16.936;2023-05-07T05:33:59;9.20;99.90
53904;DHT22;39812;52.430;16.936;2023-05-07T05:36:24;9.20;99.90
53904;DHT22;39812;52.430;16.936;2023-05-07T05:38:51;9.20;99.90
53904;DHT22;39812;52.430;16.936;2023-05-07T05:41:16;9.00;99.90
53904;DHT22;39812;52.430;16.936;2023-05-07T05:43:42;8.90;99.90
53904;DHT22;39812;52.430;16.936;2023-05-07T05:46:08;8.90;99.90
53904;DHT22;39812;52.430;16.936;2023-05-07T05:48:36;8.70;99.90
53904;DHT22;39812;52.430;16.936;2023-05-07T05:51:01;8.70;99.90
53904;DHT22;39812;52.430;16.936;2023-05-07T05:53:27;8.70;99.90
53904;DHT22;39812;52.430;16.936;2023-05-07T05:55:53;8.70;99.90
53904;DHT22;39812;52.430;16.936;2023-05-07T05:58:18;8.80;99.90
53904;DHT22;39812;52.430;16.936;2023-05-07T06:00:45;8.90;99.90
53904;DHT22;39812;52.430;16.936;2023-05-07T06:03:11;9.00;99.90
53904;DHT22;39812;52.430;16.936;2023-05-07T06:05:36;9.00;99.90
53904;DHT22;39812;52.430;16.936;2023-05-07T06:08:02;9.10;99.90
53904;DHT22;39812;52.430;16.936;2023-05-07T06:10:28;9.00;99.90
53904;DHT22;39812;52.430;16.936;2023-05-07T06:12:55;8.90;99.90
53904;DHT22;39812;52.430;16.936;2023-05-07T06:15:20;8.90;99.90
53904;DHT22;39812;52.430;16.936;2023-05-07T06:17:47;8.90;99.90
53904;DHT22;39812;52.430;16.936;2023-05-07T06:20:12;9.10;99.90
53904;DHT22;39812;52.430;16.936;2023-05-07T06:22:38;9.20;99.90
53904;DHT22;39812;52.430;16.936;2023-05-07T06:25:03;9.10;99.90
53904;DHT22;39812;52.430;16.936;2023-05-07T06:27:29;9.10;99.90
53904;DHT22;39812;52.430;16.936;2023-05-07T06:29:55;9.20;99.90
53904;DHT22;39812;52.430;16.936;2023-05-07T06:32:20;9.20;99.90
53904;DHT22;39812;52.430;16.936;2023-05-07T06:34:46;9.20;99.90
53904;DHT22;39812;52.430;16.936;2023-05-07T06:37:12;9.20;99.90
53904;DHT22;39812;52.430;16.936;2023-05-07T06:39:37;9.40;99.90
53904;DHT22;39812;52.430;16.936;2023-05-07T06:42:03;9.50;99.90
53904;DHT22;39812;52.430;16.936;2023-05-07T06:44:30;9.60;99.90
53904;DHT22;39812;52.430;16.936;2023-05-07T06:46:56;9.90;99.90
53904;DHT22;39812;52.430;16.936;2023-05-07T06:49:22;9.90;99.90
53904;DHT22;39812;52.430;16.936;2023-05-07T06:51:47;9.90;99.90
53904;DHT22;39812;52.430;16.936;2023-05-07T06:54:13;9.80;99.90
53904;DHT22;39812;52.430;16.936;2023-05-07T06:56:38;9.80;99.90
53904;DHT22;39812;52.430;16.936;2023-05-07T06:59:04;9.90;99.90
53904;DHT22;39812;52.430;16.936;2023-05-07T07:01:30;9.90;99.90
53904;DHT22;39812;52.430;16.936;2023-05-07T07:03:56;9.90;99.90
53904;DHT22;39812;52.430;16.936;2023-05-07T07:06:21;10.00;99.90
53904;DHT22;39812;52.430;16.936;2023-05-07T07:08:47;10.00;99.90
53904;DHT22;39812;52.430;16.936;2023-05-07T07:11:12;10.20;99.90
53904;DHT22;39812;52.430;16.936;2023-05-07T07:13:38;10.40;99.90
53904;DHT22;39812;52.430;16.936;2023-05-07T07:16:05;10.60;99.70
53904;DHT22;39812;52.430;16.936;2023-05-07T07:18:31;11.00;99.00
53904;DHT22;39812;52.430;16.936;2023-05-07T07:20:57;11.20;98.40
53904;DHT22;39812;52.430;16.936;2023-05-07T07:23:23;11.50;97.50
53904;DHT22;39812;52.430;16.936;2023-05-07T07:25:48;11.80;96.40
53904;DHT22;39812;52.430;16.936;2023-05-07T07:28:14;12.40;95.90
53904;DHT22;39812;52.430;16.936;2023-05-07T07:30:39;12.70;94.60
53904;DHT22;39812;52.430;16.936;2023-05-07T07:33:05;13.30;93.90
53904;DHT22;39812;52.430;16.936;2023-05-07T07:35:34;13.50;92.40
53904;DHT22;39812;52.430;16.936;2023-05-07T07:38:00;13.50;91.80
53904;DHT22;39812;52.430;16.936;2023-05-07T07:40:27;13.40;91.40
53904;DHT22;39812;52.430;16.936;2023-05-07T07:42:53;13.60;91.20
53904;DHT22;39812;52.430;16.936;2023-05-07T07:45:19;14.10;91.00
53904;DHT22;39812;52.430;16.936;2023-05-07T07:47:45;14.10;90.30
53904;DHT22;39812;52.430;16.936;2023-05-07T07:50:11;14.00;89.40
53904;DHT22;39812;52.430;16.936;2023-05-07T07:52:37;14.20;88.60
53904;DHT22;39812;52.430;16.936;2023-05-07T07:55:03;14.30;87.90
53904;DHT22;39812;52.430;16.936;2023-05-07T07:57:30;14.70;87.70
53904;DHT22;39812;52.430;16.936;2023-05-07T07:59:55;15.20;86.10
53904;DHT22;39812;52.430;16.936;2023-05-07T08:02:21;15.30;84.70
53904;DHT22;39812;52.430;16.936;2023-05-07T08:04:46;15.20;84.50
53904;DHT22;39812;52.430;16.936;2023-05-07T08:07:12;15.20;84.70
53904;DHT22;39812;52.430;16.936;2023-05-07T08:09:39;15.20;84.50
53904;DHT22;39812;52.430;16.936;2023-05-07T08:12:05;15.00;85.20
53904;DHT22;39812;52.430;16.936;2023-05-07T08:14:31;14.60;84.30
53904;DHT22;39812;52.430;16.936;2023-05-07T08:16:57;14.50;84.70
53904;DHT22;39812;52.430;16.936;2023-05-07T08:19:23;14.10;85.20
53904;DHT22;39812;52.430;16.936;2023-05-07T08:21:48;14.20;85.10
53904;DHT22;39812;52.430;16.936;2023-05-07T08:24:14;14.20;84.90
53904;DHT22;39812;52.430;16.936;2023-05-07T08:26:40;14.10;85.00
53904;DHT22;39812;52.430;16.936;2023-05-07T08:29:07;14.20;85.10
53904;DHT22;39812;52.430;16.936;2023-05-07T08:31:33;13.90;85.90
53904;DHT22;39812;52.430;16.936;2023-05-07T08:33:59;13.90;85.80
53904;DHT22;39812;52.430;16.936;2023-05-07T08:36:25;13.50;87.20
53904;DHT22;39812;52.430;16.936;2023-05-07T08:38:51;13.70;87.50
53904;DHT22;39812;52.430;16.936;2023-05-07T08:41:17;13.70;87.40
53904;DHT22;39812;52.430;16.936;2023-05-07T08:43:47;14.00;87.00
53904;DHT22;39812;52.430;16.936;2023-05-07T08:46:17;14.50;85.90
53904;DHT22;39812;52.430;16.936;2023-05-07T08:48:42;15.20;83.40
53904;DHT22;39812;52.430;16.936;2023-05-07T08:51:11;15.60;82.40
53904;DHT22;39812;52.430;16.936;2023-05-07T08:53:40;15.40;82.70
53904;DHT22;39812;52.430;16.936;2023-05-07T08:56:08;15.60;82.40
53904;DHT22;39812;52.430;16.936;2023-05-07T08:58:33;15.80;82.20
53904;DHT22;39812;52.430;16.936;2023-05-07T09:01:06;15.80;81.40
53904;DHT22;39812;52.430;16.936;2023-05-07T09:03:32;15.60;81.60
53904;DHT22;39812;52.430;16.936;2023-05-07T09:05:58;14.90;82.20
53904;DHT22;39812;52.430;16.936;2023-05-07T09:08:27;14.60;82.90
53904;DHT22;39812;52.430;16.936;2023-05-07T09:10:53;14.60;83.00
53904;DHT22;39812;52.430;16.936;2023-05-07T09:13:19;14.80;82.70
53904;DHT22;39812;52.430;16.936;2023-05-07T09:15:45;14.80;82.60
53904;DHT22;39812;52.430;16.936;2023-05-07T09:18:11;14.70;82.60
53904;DHT22;39812;52.430;16.936;2023-05-07T09:20:37;14.90;82.50
53904;DHT22;39812;52.430;16.936;2023-05-07T09:23:03;15.20;81.90
53904;DHT22;39812;52.430;16.936;2023-05-07T09:25:30;15.00;81.30
53904;DHT22;39812;52.430;16.936;2023-05-07T09:27:56;15.70;80.70
53904;DHT22;39812;52.430;16.936;2023-05-07T09:30:22;16.30;79.10
53904;DHT22;39812;52.430;16.936;2023-05-07T09:32:47;16.00;78.30
53904;DHT22;39812;52.430;16.936;2023-05-07T09:35:17;15.80;78.10
53904;DHT22;39812;52.430;16.936;2023-05-07T09:37:43;15.70;79.10
53904;DHT22;39812;52.430;16.936;2023-05-07T09:40:23;16.00;79.00
53904;DHT22;39812;52.430;16.936;2023-05-07T09:42:50;16.10;78.00
53904;DHT22;39812;52.430;16.936;2023-05-07T09:45:26;16.40;78.20
53904;DHT22;39812;52.430;16.936;2023-05-07T09:47:55;16.50;76.80
53904;DHT22;39812;52.430;16.936;2023-05-07T09:50:36;16.80;76.30
53904;DHT22;39812;52.430;16.936;2023-05-07T09:53:03;15.90;77.60
53904;DHT22;39812;52.430;16.936;2023-05-07T09:55:29;16.30;77.10
53904;DHT22;39812;52.430;16.936;2023-05-07T09:57:55;16.00;77.30
53904;DHT22;39812;52.430;16.936;2023-05-07T10:00:22;16.60;76.70
53904;DHT22;39812;52.430;16.936;2023-05-07T10:02:49;16.70;76.50
53904;DHT22;39812;52.430;16.936;2023-05-07T10:05:18;16.30;76.20
53904;DHT22;39812;52.430;16.936;2023-05-07T10:07:44;16.10;76.90
53904;DHT22;39812;52.430;16.936;2023-05-07T10:10:10;15.90;77.80
53904;DHT22;39812;52.430;16.936;2023-05-07T10:12:36;16.00;76.70
53904;DHT22;39812;52.430;16.936;2023-05-07T10:15:08;15.70;77.70
53904;DHT22;39812;52.430;16.936;2023-05-07T10:17:38;16.30;76.90
53904;DHT22;39812;52.430;16.936;2023-05-07T10:20:05;16.10;77.10
53904;DHT22;39812;52.430;16.936;2023-05-07T10:22:43;16.50;75.80
53904;DHT22;39812;52.430;16.936;2023-05-07T10:25:16;16.80;75.80
53904;DHT22;39812;52.430;16.936;2023-05-07T10:27:43;17.30;74.30
53904;DHT22;39812;52.430;16.936;2023-05-07T10:35:22;15.70;76.20
53904;DHT22;39812;52.430;16.936;2023-05-07T10:37:49;16.10;76.50
53904;DHT22;39812;52.430;16.936;2023-05-07T10:40:15;16.40;76.30
53904;DHT22;39812;52.430;16.936;2023-05-07T10:43:00;17.30;74.80
53904;DHT22;39812;52.430;16.936;2023-05-07T10:45:26;18.00;73.10
53904;DHT22;39812;52.430;16.936;2023-05-07T10:48:12;17.60;71.30
53904;DHT22;39812;52.430;16.936;2023-05-07T10:50:39;16.30;73.70
53904;DHT22;39812;52.430;16.936;2023-05-07T10:58:35;17.60;73.30
53904;DHT22;39812;52.430;16.936;2023-05-07T11:01:03;17.50;72.90
53904;DHT22;39812;52.430;16.936;2023-05-07T11:03:29;17.70;73.00
53904;DHT22;39812;52.430;16.936;2023-05-07T11:06:15;18.30;71.20
53904;DHT22;39812;52.430;16.936;2023-05-07T11:08:57;18.40;70.00
53904;DHT22;39812;52.430;16.936;2023-05-07T11:14:11;17.20;71.30
53904;DHT22;39812;52.430;16.936;2023-05-07T11:16:37;17.30;72.70
53904;DHT22;39812;52.430;16.936;2023-05-07T11:19:04;17.10;72.70
53904;DHT22;39812;52.430;16.936;2023-05-07T11:21:33;16.90;73.10
53904;DHT22;39812;52.430;16.936;2023-05-07T11:24:00;17.40;72.90
53904;DHT22;39812;52.430;16.936;2023-05-07T11:26:27;17.90;71.30
53904;DHT22;39812;52.430;16.936;2023-05-07T11:28:53;17.90;70.00
53904;DHT22;39812;52.430;16.936;2023-05-07T11:31:22;18.20;68.30
53904;DHT22;39812;52.430;16.936;2023-05-07T11:33:49;17.70;68.00
53904;DHT22;39812;52.430;16.936;2023-05-07T11:36:15;17.90;67.80
53904;DHT22;39812;52.430;16.936;2023-05-07T11:38:41;17.40;68.70
53904;DHT22;39812;52.430;16.936;2023-05-07T11:41:07;18.90;67.50
53904;DHT22;39812;52.430;16.936;2023-05-07T11:43:33;19.40;65.40
53904;DHT22;39812;52.430;16.936;2023-05-07T11:46:11;19.40;65.10
53904;DHT22;39812;52.430;16.936;2023-05-07T11:48:37;18.20;67.20
53904;DHT22;39812;52.430;16.936;2023-05-07T11:51:07;18.10;67.80
53904;DHT22;39812;52.430;16.936;2023-05-07T11:53:38;17.50;67.60
53904;DHT22;39812;52.430;16.936;2023-05-07T11:56:15;16.70;69.30
53904;DHT22;39812;52.430;16.936;2023-05-07T11:58:42;16.60;70.60
53904;DHT22;39812;52.430;16.936;2023-05-07T12:01:09;17.20;70.10
53904;DHT22;39812;52.430;16.936;2023-05-07T12:03:35;17.60;69.60
53904;DHT22;39812;52.430;16.936;2023-05-07T12:06:05;18.00;67.00
53904;DHT22;39812;52.430;16.936;2023-05-07T12:08:31;19.30;65.40
53904;DHT22;39812;52.430;16.936;2023-05-07T12:10:56;19.10;63.60
53904;DHT22;39812;52.430;16.936;2023-05-07T12:13:24;18.20;65.60
53904;DHT22;39812;52.430;16.936;2023-05-07T12:15:51;18.00;66.50
53904;DHT22;39812;52.430;16.936;2023-05-07T12:18:18;19.10;66.40
53904;DHT22;39812;52.430;16.936;2023-05-07T12:20:44;23.20;61.80
53904;DHT22;39812;52.430;16.936;2023-05-07T12:23:10;24.80;55.40
53904;DHT22;39812;52.430;16.936;2023-05-07T12:25:40;24.50;54.10
53904;DHT22;39812;52.430;16.936;2023-05-07T12:28:12;23.90;53.70
53904;DHT22;39812;52.430;16.936;2023-05-07T12:30:39;21.20;57.90
53904;DHT22;39812;52.430;16.936;2023-05-07T12:33:05;19.50;61.00
53904;DHT22;39812;52.430;16.936;2023-05-07T12:35:32;18.40;63.50
53904;DHT22;39812;52.430;16.936;2023-05-07T12:38:01;17.90;65.30
53904;DHT22;39812;52.430;16.936;2023-05-07T12:40:49;20.60;63.90
53904;DHT22;39812;52.430;16.936;2023-05-07T12:43:25;22.30;59.20
53904;DHT22;39812;52.430;16.936;2023-05-07T12:45:54;25.00;55.20
53904;DHT22;39812;52.430;16.936;2023-05-07T12:48:21;24.40;53.20
53904;DHT22;39812;52.430;16.936;2023-05-07T12:51:05;21.90;56.10
53904;DHT22;39812;52.430;16.936;2023-05-07T12:53:31;20.40;58.40
53904;DHT22;39812;52.430;16.936;2023-05-07T12:55:58;22.80;57.30
53904;DHT22;39812;52.430;16.936;2023-05-07T12:58:33;24.60;53.30
53904;DHT22;39812;52.430;16.936;2023-05-07T13:01:03;24.30;51.20
53904;DHT22;39812;52.430;16.936;2023-05-07T13:03:34;23.90;51.90
53904;DHT22;39812;52.430;16.936;2023-05-07T13:06:03;24.30;51.30
53904;DHT22;39812;52.430;16.936;2023-05-07T13:08:31;23.40;52.40
53904;DHT22;39812;52.430;16.936;2023-05-07T13:10:58;21.60;54.60
53904;DHT22;39812;52.430;16.936;2023-05-07T13:13:25;20.80;56.70
53904;DHT22;39812;52.430;16.936;2023-05-07T13:15:51;20.20;57.90
53904;DHT22;39812;52.430;16.936;2023-05-07T13:18:17;20.20;58.10
53904;DHT22;39812;52.430;16.936;2023-05-07T13:20:42;20.60;57.80
53904;DHT22;39812;52.430;16.936;2023-05-07T13:23:08;20.60;57.40
53904;DHT22;39812;52.430;16.936;2023-05-07T13:25:34;19.70;58.20
53904;DHT22;39812;52.430;16.936;2023-05-07T13:27:59;19.40;59.60
53904;DHT22;39812;52.430;16.936;2023-05-07T13:30:25;19.30;60.70
53904;DHT22;39812;52.430;16.936;2023-05-07T13:32:53;19.80;60.00
53904;DHT22;39812;52.430;16.936;2023-05-07T13:35:19;19.40;59.20
53904;DHT22;39812;52.430;16.936;2023-05-07T13:37:44;19.10;60.00
53904;DHT22;39812;52.430;16.936;2023-05-07T13:40:10;18.70;60.50
53904;DHT22;39812;52.430;16.936;2023-05-07T13:42:36;19.40;60.30
53904;DHT22;39812;52.430;16.936;2023-05-07T13:45:02;23.50;55.70
53904;DHT22;39812;52.430;16.936;2023-05-07T13:47:30;28.30;49.80
53904;DHT22;39812;52.430;16.936;2023-05-07T13:49:56;32.10;46.00
53904;DHT22;39812;52.430;16.936;2023-05-07T13:52:21;33.70;41.40
53904;DHT22;39812;52.430;16.936;2023-05-07T13:54:47;31.50;40.90
53904;DHT22;39812;52.430;16.936;2023-05-07T13:57:12;31.20;40.90
53904;DHT22;39812;52.430;16.936;2023-05-07T13:59:38;29.90;42.00
53904;DHT22;39812;52.430;16.936;2023-05-07T14:02:04;31.30;41.30
53904;DHT22;39812;52.430;16.936;2023-05-07T14:04:30;33.80;40.00
53904;DHT22;39812;52.430;16.936;2023-05-07T14:06:56;31.60;38.20
53904;DHT22;39812;52.430;16.936;2023-05-07T14:09:22;28.00;40.90
53904;DHT22;39812;52.430;16.936;2023-05-07T14:11:47;25.30;43.90
53904;DHT22;39812;52.430;16.936;2023-05-07T14:14:19;23.40;46.90
53904;DHT22;39812;52.430;16.936;2023-05-07T14:16:45;22.30;48.70
53904;DHT22;39812;52.430;16.936;2023-05-07T14:19:11;21.50;50.60
53904;DHT22;39812;52.430;16.936;2023-05-07T14:21:37;20.60;52.20
53904;DHT22;39812;52.430;16.936;2023-05-07T14:24:03;20.30;53.50
53904;DHT22;39812;52.430;16.936;2023-05-07T14:26:29;20.30;53.50
53904;DHT22;39812;52.430;16.936;2023-05-07T14:28:55;20.10;53.80
53904;DHT22;39812;52.430;16.936;2023-05-07T14:31:23;19.70;54.70
53904;DHT22;39812;52.430;16.936;2023-05-07T14:33:49;20.20;54.40
53904;DHT22;39812;52.430;16.936;2023-05-07T14:36:18;20.30;53.60
53904;DHT22;39812;52.430;16.936;2023-05-07T14:38:48;20.60;53.60
53904;DHT22;39812;52.430;16.936;2023-05-07T14:41:14;20.30;54.20
53904;DHT22;39812;52.430;16.936;2023-05-07T14:43:40;19.90;54.00
53904;DHT22;39812;52.430;16.936;2023-05-07T14:46:05;19.70;54.70
53904;DHT22;39812;52.430;16.936;2023-05-07T14:48:31;24.20;50.20
53904;DHT22;39812;52.430;16.936;2023-05-07T14:50:57;24.40;48.50
53904;DHT22;39812;52.430;16.936;2023-05-07T14:53:23;22.50;48.30
53904;DHT22;39812;52.430;16.936;2023-05-07T14:55:48;21.80;50.50
53904;DHT22;39812;52.430;16.936;2023-05-07T14:58:14;21.20;51.80
53904;DHT22;39812;52.430;16.936;2023-05-07T15:00:40;19.90;53.50
53904;DHT22;39812;52.430;16.936;2023-05-07T15:03:08;19.30;55.00
53904;DHT22;39812;52.430;16.936;2023-05-07T15:05:34;21.00;52.50
53904;DHT22;39812;52.430;16.936;2023-05-07T15:08:00;20.30;52.70
53904;DHT22;39812;52.430;16.936;2023-05-07T15:10:26;25.00;49.20
53904;DHT22;39812;52.430;16.936;2023-05-07T15:12:52;28.40;45.50
53904;DHT22;39812;52.430;16.936;2023-05-07T15:15:17;32.40;42.30
53904;DHT22;39812;52.430;16.936;2023-05-07T15:17:43;33.60;39.20
53904;DHT22;39812;52.430;16.936;2023-05-07T15:20:09;34.90;38.20
53904;DHT22;39812;52.430;16.936;2023-05-07T15:22:35;35.60;36.60
53904;DHT22;39812;52.430;16.936;2023-05-07T15:25:03;33.70;36.30
53904;DHT22;39812;52.430;16.936;2023-05-07T15:27:30;30.90;37.70
53904;DHT22;39812;52.430;16.936;2023-05-07T15:29:56;31.80;38.30
53904;DHT22;39812;52.430;16.936;2023-05-07T15:32:22;27.80;39.70